Time;durP1;ratioP1;P1;durP2;ratioP2;P2;SDS_P1;SDS_P2;PMS_P1;PMS_P2;Temp;Humidity;BMP_temperature;BMP_pressure;BME280_temperature;BME280_humidity;BME280_pressure;Samples;Min_cycle;Max_cycle;Signal;HPM_P1;HPM_P2
2022/09/09 00:00:23;;;;;;;;;;;;;;;23.35;69.50;153526.50;1671296;84;20161;-62
2022/09/09 00:03:03;;;;;;;;;;;;;;;23.43;69.44;153547.42;1670920;84;20208;-61
2022/09/09 00:05:42;;;;;;;;;;;;;;;23.50;68.89;153564.44;1678611;84;21140;-61
2022/09/09 00:08:12;;;;;;;;;;;;;;;23.52;68.62;153569.67;1705682;84;20146;-61
2022/09/09 00:10:42;;;;;;;;;;;;;;;23.40;68.41;153539.58;1704180;83;20189;-60
2022/09/09 00:13:16;;;;;;;;;;;;;;;23.22;68.88;153493.73;1680499;85;20446;-61
2022/09/09 00:16:05;;;;;;;;;;;;;;;23.06;69.59;153451.84;1668322;85;20615;-62
2022/09/09 00:18:52;;;;;;;;;;;;;;;22.97;70.13;153429.59;1668142;86;21242;-61
2022/09/09 00:21:18;;;;;;;;;;;;;;;23.01;70.31;153440.06;1668144;86;20173;-60
2022/09/09 00:23:51;;;;;;;;;;;;;;;23.08;70.32;153457.08;1668336;86;20185;-70
2022/09/09 00:26:38;;;;;;;;;;;;;;;23.15;70.12;153475.39;1668921;85;20185;-70
2022/09/09 00:29:14;;;;;;;;;;;;;;;23.17;69.87;153481.94;1668708;86;20220;-70
2022/09/09 00:31:41;;;;;;;;;;;;;;;23.13;69.87;153471.48;1640009;86;21234;-70
2022/09/09 00:34:17;;;;;;;;;;;;;;;23.11;70.15;153466.25;1668641;85;20097;-70
2022/09/09 00:36:44;;;;;;;;;;;;;;;23.14;70.05;153474.11;1668565;86;20186;-61
2022/09/09 00:39:14;;;;;;;;;;;;;;;23.16;69.80;153479.33;1668065;86;20449;-61
2022/09/09 00:41:50;;;;;;;;;;;;;;;23.11;69.72;153466.25;1668458;85;20197;-70
2022/09/09 00:44:35;;;;;;;;;;;;;;;22.97;70.26;153429.59;1668208;86;22006;-71
2022/09/09 00:47:19;;;;;;;;;;;;;;;22.95;70.62;153424.38;1639344;86;20197;-61
2022/09/09 00:49:54;;;;;;;;;;;;;;;22.98;70.74;153433.50;1639411;86;20483;-62
2022/09/09 00:52:29;;;;;;;;;;;;;;;23.03;70.47;153445.28;1639357;86;20840;-61
2022/09/09 00:55:00;;;;;;;;;;;;;;;23.00;70.37;153438.78;1667960;85;20413;-61
2022/09/09 00:57:29;;;;;;;;;;;;;;;22.97;70.60;153429.59;1668026;86;21160;-61
2022/09/09 01:00:19;;;;;;;;;;;;;;;22.97;70.64;153430.87;1668048;85;20481;-61
2022/09/09 01:03:05;;;;;;;;;;;;;;;23.00;70.36;153437.44;1667872;85;20180;-61
2022/09/09 01:05:46;;;;;;;;;;;;;;;22.87;70.48;153406.02;1675005;84;22095;-60
2022/09/09 01:08:27;;;;;;;;;;;;;;;22.84;71.00;153398.19;1661633;86;20185;-61
2022/09/09 01:10:54;;;;;;;;;;;;;;;22.88;70.77;153407.36;1689921;84;21147;-71
2022/09/09 01:13:25;;;;;;;;;;;;;;;22.93;70.51;153419.14;1662246;85;20485;-71
2022/09/09 01:15:53;;;;;;;;;;;;;;;22.85;70.50;153400.80;1689536;85;20512;-61
2022/09/09 01:18:22;;;;;;;;;;;;;;;22.82;71.18;153392.95;1688200;84;20198;-61
2022/09/09 01:21:37;;;;;;;;;;;;;;;22.96;71.11;153426.98;1798137;79;20698;-60
2022/09/09 01:24:17;;;;;;;;;;;;;;;23.05;70.84;153450.52;1758068;81;20148;-60
2022/09/09 01:26:52;;;;;;;;;;;;;;;23.19;70.07;153485.84;1756214;80;21146;-61
2022/09/09 01:29:24;;;;;;;;;;;;;;;23.14;69.79;153472.77;1758576;80;20163;-60
2022/09/09 01:31:54;;;;;;;;;;;;;;;23.01;70.13;153440.06;1737665;81;20180;-61
2022/09/09 01:34:21;;;;;;;;;;;;;;;23.01;70.25;153440.06;1758285;81;20128;-61
2022/09/09 01:37:08;;;;;;;;;;;;;;;23.01;70.47;153441.39;1758249;81;20120;-61
2022/09/09 01:39:35;;;;;;;;;;;;;;;23.11;70.17;153464.92;1758416;81;21180;-60
2022/09/09 01:42:05;;;;;;;;;;;;;;;23.10;69.98;153463.64;1757867;81;20144;-60
2022/09/09 01:44:32;;;;;;;;;;;;;;;23.10;69.65;153463.64;1758721;81;20427;-60
2022/09/09 01:47:00;;;;;;;;;;;;;;;23.02;69.66;153444.00;1758206;80;20168;-60
2022/09/09 01:49:28;;;;;;;;;;;;;;;22.86;69.97;153403.41;1758256;81;20124;-60
2022/09/09 01:51:56;;;;;;;;;;;;;;;22.74;70.67;153372.03;1758344;81;21102;-60
2022/09/09 01:54:26;;;;;;;;;;;;;;;22.77;70.87;153379.88;1756655;80;20168;-60
2022/09/09 01:57:22;;;;;;;;;;;;;;;22.88;70.85;153407.36;1758438;80;20127;-60
2022/09/09 02:00:08;;;;;;;;;;;;;;;22.95;70.35;153424.38;1758370;81;20174;-60
2022/09/09 02:03:02;;;;;;;;;;;;;;;23.04;69.97;153449.23;1758445;81;20116;-60
2022/09/09 02:05:49;;;;;;;;;;;;;;;23.06;69.80;153453.13;1756746;81;21043;-60
2022/09/09 02:08:28;;;;;;;;;;;;;;;23.04;69.56;153447.91;1759045;81;20124;-69
2022/09/09 02:11:08;;;;;;;;;;;;;;;22.99;69.45;153434.83;1758929;81;20147;-70
2022/09/09 02:13:40;;;;;;;;;;;;;;;22.95;69.80;153424.38;1758039;81;20440;-70
2022/09/09 02:16:15;;;;;;;;;;;;;;;23.01;69.53;153440.06;1740419;81;20436;-68
2022/09/09 02:19:02;;;;;;;;;;;;;;;22.97;69.33;153429.59;1759016;81;21149;-69
2022/09/09 02:21:31;;;;;;;;;;;;;;;22.88;69.28;153408.69;1758155;81;20163;-69
2022/09/09 02:23:59;;;;;;;;;;;;;;;22.76;69.88;153377.27;1758901;81;20192;-69
2022/09/09 02:26:26;;;;;;;;;;;;;;;22.77;69.96;153378.55;1739724;81;20200;-69
2022/09/09 02:28:55;;;;;;;;;;;;;;;22.73;69.70;153369.42;1758760;81;20209;-70
2022/09/09 02:31:22;;;;;;;;;;;;;;;22.56;70.08;153327.55;1757960;81;21145;-61
2022/09/09 02:33:56;;;;;;;;;;;;;;;22.49;70.86;153309.25;1757614;80;20613;-61
2022/09/09 02:36:23;;;;;;;;;;;;;;;22.59;70.99;153335.39;1758077;80;20171;-60
2022/09/09 02:38:52;;;;;;;;;;;;;;;22.68;70.64;153356.34;1757671;80;20451;-61
2022/09/09 02:41:33;;;;;;;;;;;;;;;22.71;70.39;153364.19;1758559;81;20107;-70
2022/09/09 02:44:01;;;;;;;;;;;;;;;22.70;70.56;153361.58;1758418;81;21078;-70
2022/09/09 02:46:55;;;;;;;;;;;;;;;22.70;70.40;153361.58;1758447;81;20390;-69
2022/09/09 02:49:38;;;;;;;;;;;;;;;22.71;70.34;153365.47;1758427;81;20181;-70
2022/09/09 02:52:06;;;;;;;;;;;;;;;22.60;70.63;153338.00;1757949;80;20425;-61
2022/09/09 02:54:37;;;;;;;;;;;;;;;22.64;70.72;153345.84;1739135;81;20128;-61
2022/09/09 02:57:21;;;;;;;;;;;;;;;22.73;70.66;153369.42;1757548;81;23177;-62
2022/09/09 02:59:48;;;;;;;;;;;;;;;22.82;70.15;153392.95;1757589;80;20293;-61
2022/09/09 03:02:15;;;;;;;;;;;;;;;22.77;69.92;153379.88;1738650;81;20199;-61
2022/09/09 03:04:44;;;;;;;;;;;;;;;22.64;70.16;153345.84;1757885;80;20120;-61
2022/09/09 03:07:11;;;;;;;;;;;;;;;22.52;70.92;153317.09;1758142;81;20418;-59
2022/09/09 03:09:40;;;;;;;;;;;;;;;22.49;71.10;153309.25;1757879;80;21140;-59
2022/09/09 03:12:07;;;;;;;;;;;;;;;22.44;71.20;153296.14;1757598;80;20128;-60
2022/09/09 03:14:34;;;;;;;;;;;;;;;22.33;71.41;153269.95;1722390;83;20187;-70
2022/09/09 03:17:02;;;;;;;;;;;;;;;22.29;71.84;153258.16;1722673;82;20479;-69
2022/09/09 03:19:31;;;;;;;;;;;;;;;22.29;71.87;153259.50;1722470;83;20255;-69
2022/09/09 03:21:58;;;;;;;;;;;;;;;22.22;72.20;153239.87;1722566;83;21172;-61
2022/09/09 03:24:25;;;;;;;;;;;;;;;22.26;72.47;153251.66;1722211;83;20223;-61
2022/09/09 03:26:52;;;;;;;;;;;;;;;22.37;72.43;153277.78;1722276;83;20196;-60
2022/09/09 03:29:18;;;;;;;;;;;;;;;22.63;72.16;153343.23;1722464;83;20215;-61
2022/09/09 03:31:46;;;;;;;;;;;;;;;22.72;71.25;153368.09;1722308;83;20139;-62
2022/09/09 03:34:13;;;;;;;;;;;;;;;22.75;71.11;153374.66;1722438;83;21287;-71
2022/09/09 03:36:41;;;;;;;;;;;;;;;22.75;70.83;153374.66;1723011;83;20151;-71
2022/09/09 03:39:07;;;;;;;;;;;;;;;22.71;70.94;153365.47;1723058;83;20184;-69
2022/09/09 03:41:37;;;;;;;;;;;;;;;22.76;70.73;153377.27;1723062;83;20406;-69
2022/09/09 03:44:04;;;;;;;;;;;;;;;22.71;70.56;153364.19;1723338;83;20202;-71
2022/09/09 03:46:33;;;;;;;;;;;;;;;22.59;71.03;153334.11;1723373;82;21825;-71
2022/09/09 03:49:01;;;;;;;;;;;;;;;22.53;71.35;153319.70;1722879;83;20614;-70
2022/09/09 03:51:29;;;;;;;;;;;;;;;22.50;71.38;153310.53;1723077;83;20203;-69
2022/09/09 03:53:58;;;;;;;;;;;;;;;22.45;71.69;153298.75;1722973;83;20503;-70
2022/09/09 03:56:24;;;;;;;;;;;;;;;22.50;71.83;153311.88;1722365;83;20553;-61
2022/09/09 03:58:51;;;;;;;;;;;;;;;22.63;71.64;153343.23;1722270;83;22873;-61
2022/09/09 04:01:18;;;;;;;;;;;;;;;22.72;71.24;153368.09;1722597;83;20223;-62
2022/09/09 04:03:45;;;;;;;;;;;;;;;22.84;70.71;153396.91;1722505;83;20199;-62
2022/09/09 04:06:14;;;;;;;;;;;;;;;22.85;70.32;153400.80;1744257;81;20127;-70
2022/09/09 04:08:41;;;;;;;;;;;;;;;22.85;70.23;153400.80;1758806;81;20444;-70
2022/09/09 04:11:10;;;;;;;;;;;;;;;22.93;70.24;153420.42;1758812;81;21085;-69
2022/09/09 04:13:38;;;;;;;;;;;;;;;23.11;69.82;153466.25;1758370;81;20168;-70
2022/09/09 04:16:07;;;;;;;;;;;;;;;23.27;69.04;153506.86;1758570;81;20148;-69
2022/09/09 04:18:34;;;;;;;;;;;;;;;23.36;68.36;153529.11;1758794;81;20176;-71
2022/09/09 04:21:01;;;;;;;;;;;;;;;23.34;68.19;153523.88;1750364;81;20493;-70
2022/09/09 04:23:29;;;;;;;;;;;;;;;23.35;68.34;153525.16;1745047;82;21220;-62
2022/09/09 04:25:57;;;;;;;;;;;;;;;23.42;68.07;153543.47;1744473;82;20185;-61
2022/09/09 04:28:26;;;;;;;;;;;;;;;23.52;67.85;153568.34;1744641;82;20211;-61
2022/09/09 04:30:52;;;;;;;;;;;;;;;23.66;67.52;153605.02;1744584;81;20116;-61
2022/09/09 04:33:19;;;;;;;;;;;;;;;23.79;66.67;153636.45;1744767;82;20220;-70
2022/09/09 04:35:47;;;;;;;;;;;;;;;23.90;66.74;153665.22;1745298;82;21228;-71
2022/09/09 04:38:15;;;;;;;;;;;;;;;24.00;66.23;153691.44;1745360;82;20137;-73
2022/09/09 04:40:43;;;;;;;;;;;;;;;24.24;65.91;153751.70;1745218;82;20180;-73
2022/09/09 04:43:10;;;;;;;;;;;;;;;24.53;64.76;153825.03;1744691;82;21265;-62
2022/09/09 04:45:37;;;;;;;;;;;;;;;24.65;64.12;153855.14;1744526;82;20172;-62
2022/09/09 04:48:04;;;;;;;;;;;;;;;24.73;63.65;153874.80;1744344;82;21855;-63
2022/09/09 04:50:31;;;;;;;;;;;;;;;24.79;63.56;153890.56;1744527;82;20215;-61
2022/09/09 04:53:02;;;;;;;;;;;;;;;24.89;63.37;153915.44;1744380;81;20120;-60
2022/09/09 04:55:28;;;;;;;;;;;;;;;25.06;63.10;153957.38;1744681;82;20152;-61
2022/09/09 04:57:55;;;;;;;;;;;;;;;25.29;62.40;154016.30;1744417;82;20184;-61
2022/09/09 05:00:21;;;;;;;;;;;;;;;25.46;61.93;154059.58;1744585;81;20529;-61
2022/09/09 05:02:49;;;;;;;;;;;;;;;25.68;61.22;154115.94;1744284;82;20169;-61
2022/09/09 05:05:16;;;;;;;;;;;;;;;25.89;60.55;154168.37;1744198;82;20571;-61
2022/09/09 05:07:44;;;;;;;;;;;;;;;26.08;59.83;154215.56;1744862;82;20200;-62
2022/09/09 05:10:10;;;;;;;;;;;;;;;26.25;59.10;154260.20;1744624;82;20386;-62
2022/09/09 05:12:37;;;;;;;;;;;;;;;26.39;58.39;154294.25;1742807;82;21082;-62
2022/09/09 05:15:05;;;;;;;;;;;;;;;26.51;57.83;154325.73;1735935;81;20443;-62
2022/09/09 05:17:33;;;;;;;;;;;;;;;26.48;57.75;154317.87;1736400;81;20292;-61
2022/09/09 05:20:02;;;;;;;;;;;;;;;26.54;57.76;154333.59;1733301;82;20203;-60
2022/09/09 05:22:31;;;;;;;;;;;;;;;26.70;57.51;154374.23;1733156;81;20437;-60
2022/09/09 05:24:58;;;;;;;;;;;;;;;26.96;57.00;154438.56;1736107;82;21127;-61
2022/09/09 05:27:25;;;;;;;;;;;;;;;27.17;56.24;154493.64;1737407;82;20410;-61
2022/09/09 05:29:52;;;;;;;;;;;;;;;27.31;55.55;154529.05;1741191;82;20220;-61
2022/09/09 05:32:19;;;;;;;;;;;;;;;27.37;55.55;154543.50;1748264;80;20168;-61
2022/09/09 05:34:47;;;;;;;;;;;;;;;27.53;55.01;154582.91;1742942;82;20192;-61
2022/09/09 05:37:14;;;;;;;;;;;;;;;27.66;54.50;154615.70;1745316;80;21249;-61
2022/09/09 05:39:42;;;;;;;;;;;;;;;27.70;54.47;154626.19;1735218;82;20167;-60
2022/09/09 05:42:09;;;;;;;;;;;;;;;27.68;54.50;154620.94;1739303;82;20133;-61
2022/09/09 05:44:37;;;;;;;;;;;;;;;27.71;54.67;154630.09;1735060;81;20208;-60
2022/09/09 05:47:04;;;;;;;;;;;;;;;27.82;54.31;154656.36;1736235;81;20248;-60
2022/09/09 05:49:30;;;;;;;;;;;;;;;27.91;54.48;154679.97;1741930;80;21130;-61
2022/09/09 05:51:58;;;;;;;;;;;;;;;28.15;54.14;154740.31;1745650;80;20162;-61
2022/09/09 05:54:25;;;;;;;;;;;;;;;28.42;53.57;154809.94;1741181;80;20457;-61
2022/09/09 05:56:53;;;;;;;;;;;;;;;28.62;52.81;154859.81;1738750;82;20498;-60
2022/09/09 05:59:20;;;;;;;;;;;;;;;28.73;52.47;154887.39;1732164;80;20172;-64
2022/09/09 06:01:47;;;;;;;;;;;;;;;28.84;52.37;154916.28;1740500;80;21138;-64
2022/09/09 06:04:20;;;;;;;;;;;;;;;29.00;52.18;154957.03;1739897;80;20166;-64
2022/09/09 06:06:48;;;;;;;;;;;;;;;29.38;51.69;155052.88;1744057;80;20206;-64
2022/09/09 06:09:18;;;;;;;;;;;;;;;29.95;50.86;155197.36;1745066;80;20125;-64
2022/09/09 06:11:45;;;;;;;;;;;;;;;30.55;49.59;155349.81;1740705;80;20202;-64
2022/09/09 06:14:13;;;;;;;;;;;;;;;31.20;48.15;155512.88;1743836;80;21282;-64
2022/09/09 06:16:43;;;;;;;;;;;;;;;31.79;46.42;155662.81;1743953;80;20465;-65
2022/09/09 06:19:12;;;;;;;;;;;;;;;32.20;45.54;155766.67;1742768;80;20165;-63
2022/09/09 06:21:40;;;;;;;;;;;;;;;32.30;44.58;155794.28;1749308;80;20460;-64
2022/09/09 06:24:08;;;;;;;;;;;;;;;32.20;44.45;155768.00;1744141;80;20434;-65
2022/09/09 06:26:37;;;;;;;;;;;;;;;32.14;44.34;155752.19;1746395;80;21311;-64
2022/09/09 06:29:04;;;;;;;;;;;;;;;32.02;44.21;155721.95;1740052;80;20176;-65
2022/09/09 06:31:33;;;;;;;;;;;;;;;31.88;43.91;155686.45;1746930;80;20164;-66
2022/09/09 06:34:06;;;;;;;;;;;;;;;31.79;44.11;155662.81;1744709;80;20176;-66
2022/09/09 06:36:36;;;;;;;;;;;;;;;31.77;44.24;155657.56;1718306;82;20182;-71
2022/09/09 06:39:04;;;;;;;;;;;;;;;31.71;44.20;155644.31;1745343;80;21285;-72
2022/09/09 06:41:32;;;;;;;;;;;;;;;31.61;44.25;155616.70;1743881;80;20162;-64
2022/09/09 06:44:00;;;;;;;;;;;;;;;31.60;44.21;155615.42;1743170;80;20527;-67
2022/09/09 06:46:35;;;;;;;;;;;;;;;31.69;44.05;155639.06;1741040;80;21253;-65
2022/09/09 06:49:02;;;;;;;;;;;;;;;31.79;43.73;155662.81;1743346;80;20601;-65
2022/09/09 06:51:31;;;;;;;;;;;;;;;31.82;43.41;155670.69;1743420;80;21082;-71
2022/09/09 06:53:59;;;;;;;;;;;;;;;31.78;43.29;155660.19;1740144;80;20836;-72
2022/09/09 06:56:27;;;;;;;;;;;;;;;31.55;43.16;155602.28;1746021;80;20166;-72
2022/09/09 06:58:56;;;;;;;;;;;;;;;31.28;44.01;155533.89;1739355;80;20241;-72
2022/09/09 07:01:27;;;;;;;;;;;;;;;31.25;44.07;155526.00;1746564;80;20155;-72
2022/09/09 07:03:55;;;;;;;;;;;;;;;31.24;43.98;155524.72;1738299;80;21131;-72
2022/09/09 07:06:24;;;;;;;;;;;;;;;31.22;44.08;155518.13;1741702;80;20126;-71
2022/09/09 07:08:54;;;;;;;;;;;;;;;31.22;44.27;155519.47;1738480;80;20449;-70
2022/09/09 07:11:22;;;;;;;;;;;;;;;31.23;44.34;155522.09;1739953;80;20597;-71
2022/09/09 07:13:48;;;;;;;;;;;;;;;31.11;44.67;155491.81;1738697;81;20235;-72
2022/09/09 07:16:20;;;;;;;;;;;;;;;30.98;45.01;155457.63;1736673;80;21183;-64
2022/09/09 07:18:46;;;;;;;;;;;;;;;30.97;45.20;155456.34;1743177;80;20576;-63
2022/09/09 07:21:14;;;;;;;;;;;;;;;31.09;45.82;155485.22;1746960;80;20472;-63
2022/09/09 07:23:41;;;;;;;;;;;;;;;31.35;46.31;155550.98;1741943;80;20334;-64
2022/09/09 07:26:11;;;;;;;;;;;;;;;31.54;46.22;155600.95;1745102;80;20186;-64
2022/09/09 07:28:38;;;;;;;;;;;;;;;31.68;45.85;155635.16;1751432;80;22270;-64
2022/09/09 07:31:05;;;;;;;;;;;;;;;31.69;45.90;155637.78;1744533;80;20209;-63
2022/09/09 07:33:33;;;;;;;;;;;;;;;31.64;46.24;155625.92;1745244;80;20225;-63
2022/09/09 07:36:05;;;;;;;;;;;;;;;31.68;46.20;155635.16;1734284;82;20612;-64
2022/09/09 07:38:43;;;;;;;;;;;;;;;31.76;46.09;155654.88;1746038;80;20429;-64
2022/09/09 07:41:11;;;;;;;;;;;;;;;31.72;46.17;155647.00;1738791;80;21259;-64
2022/09/09 07:43:39;;;;;;;;;;;;;;;31.69;46.13;155639.06;1741370;80;20256;-64
2022/09/09 07:46:07;;;;;;;;;;;;;;;31.68;46.09;155636.44;1734598;82;21040;-64
2022/09/09 07:48:35;;;;;;;;;;;;;;;31.61;46.44;155616.70;1735855;81;20141;-64
2022/09/09 07:51:17;;;;;;;;;;;;;;;31.51;46.81;155593.06;1734223;80;20693;-64
2022/09/09 07:53:41;;;;;;;;;;;;;;;31.36;47.28;155554.95;1737380;80;20628;-64
2022/09/09 07:56:12;;;;;;;;;;;;;;;31.34;47.59;155549.70;1742310;80;20334;-64
2022/09/09 07:58:40;;;;;;;;;;;;;;;31.32;47.83;155544.45;1744417;80;20455;-64
2022/09/09 08:01:11;;;;;;;;;;;;;;;31.35;47.71;155552.33;1742901;80;20602;-65
2022/09/09 08:03:38;;;;;;;;;;;;;;;31.25;47.82;155527.34;1742103;80;20146;-64
2022/09/09 08:06:07;;;;;;;;;;;;;;;31.09;48.27;155486.56;1737713;80;20179;-64
2022/09/09 08:08:38;;;;;;;;;;;;;;;30.97;48.78;155455.00;1737686;80;20327;-64
2022/09/09 08:11:08;;;;;;;;;;;;;;;30.83;49.28;155419.53;1738788;80;20165;-64
2022/09/09 08:13:36;;;;;;;;;;;;;;;30.86;49.47;155428.73;1686520;83;20200;-64
2022/09/09 08:16:06;;;;;;;;;;;;;;;30.89;49.63;155435.28;1689920;84;20189;-65
2022/09/09 08:18:33;;;;;;;;;;;;;;;30.96;49.41;155452.38;1690543;82;21147;-65
2022/09/09 08:21:08;;;;;;;;;;;;;;;30.86;49.67;155428.73;1696795;84;20180;-64
2022/09/09 08:23:36;;;;;;;;;;;;;;;30.68;50.12;155382.72;1693433;83;20155;-64
2022/09/09 08:26:10;;;;;;;;;;;;;;;30.56;50.56;155351.16;1694402;84;20185;-64
2022/09/09 08:28:38;;;;;;;;;;;;;;;30.51;50.99;155339.31;1690344;83;21093;-64
2022/09/09 08:31:13;;;;;;;;;;;;;;;30.51;50.85;155339.31;1699607;83;21215;-64
2022/09/09 08:33:41;;;;;;;;;;;;;;;30.45;50.99;155323.56;1694142;83;20234;-64
2022/09/09 08:36:10;;;;;;;;;;;;;;;30.43;51.00;155318.31;1691673;83;20490;-63
2022/09/09 08:38:37;;;;;;;;;;;;;;;30.37;51.16;155302.50;1689482;83;20474;-64
2022/09/09 08:41:21;;;;;;;;;;;;;;;30.14;51.41;155244.70;1693014;83;20218;-62
2022/09/09 08:43:48;;;;;;;;;;;;;;;29.97;52.08;155202.66;1690732;84;21148;-63
2022/09/09 08:46:27;;;;;;;;;;;;;;;30.00;52.40;155210.53;1694068;83;20466;-63
2022/09/09 08:49:00;;;;;;;;;;;;;;;29.95;52.29;155196.06;1693265;83;20474;-62
2022/09/09 08:51:28;;;;;;;;;;;;;;;29.87;52.38;155177.69;1691250;83;20489;-64
2022/09/09 08:53:55;;;;;;;;;;;;;;;29.81;52.03;155160.61;1694256;83;20484;-64
2022/09/09 08:56:23;;;;;;;;;;;;;;;29.73;51.90;155142.25;1629562;83;20717;-64
2022/09/09 08:58:53;;;;;;;;;;;;;;;29.66;51.77;155122.53;1699277;83;20194;-63
2022/09/09 09:01:54;;;;;;;;;;;;;;;29.58;52.54;155102.83;1685096;83;20185;-63
2022/09/09 09:04:47;;;;;;;;;;;;;;;29.57;53.61;155100.20;1693511;84;20211;-64
2022/09/09 09:07:37;;;;;;;;;;;;;;;29.61;54.32;155109.36;1688895;83;20179;-63
2022/09/09 09:10:27;;;;;;;;;;;;;;;29.68;54.67;155129.06;1689860;84;21224;-71
2022/09/09 09:12:54;;;;;;;;;;;;;;;29.76;54.68;155147.50;1700768;82;20210;-69
2022/09/09 09:15:24;;;;;;;;;;;;;;;29.81;54.37;155160.61;1690185;82;20182;-71
2022/09/09 09:17:50;;;;;;;;;;;;;;;29.79;54.21;155155.36;1691606;83;20355;-72
2022/09/09 09:20:20;;;;;;;;;;;;;;;29.73;54.45;155142.25;1697652;83;20151;-73
2022/09/09 09:22:52;;;;;;;;;;;;;;;29.74;54.43;155143.53;1693864;83;21122;-71
2022/09/09 09:25:21;;;;;;;;;;;;;;;29.80;54.35;155157.98;1703071;82;20507;-72
2022/09/09 09:28:05;;;;;;;;;;;;;;;29.89;54.15;155181.61;1701977;84;20209;-71
2022/09/09 09:30:42;;;;;;;;;;;;;;;30.01;53.64;155213.20;1696810;82;20230;-70
2022/09/09 09:33:22;;;;;;;;;;;;;;;30.05;53.28;155221.08;1696661;82;20197;-70
2022/09/09 09:35:50;;;;;;;;;;;;;;;29.85;53.45;155171.11;1698429;82;22380;-73
2022/09/09 09:38:24;;;;;;;;;;;;;;;29.62;54.13;155113.31;1702906;83;20114;-72
2022/09/09 09:40:58;;;;;;;;;;;;;;;29.56;54.37;155098.86;1694161;82;20206;-72
2022/09/09 09:43:27;;;;;;;;;;;;;;;29.60;54.33;155108.08;1698225;83;20227;-62
2022/09/09 09:45:55;;;;;;;;;;;;;;;29.65;54.10;155121.19;1703908;82;20231;-63
2022/09/09 09:48:23;;;;;;;;;;;;;;;29.72;53.71;155139.56;1701137;83;21211;-63
2022/09/09 09:51:02;;;;;;;;;;;;;;;29.70;53.64;155134.31;1702605;83;20551;-72
2022/09/09 09:53:31;;;;;;;;;;;;;;;29.67;53.34;155126.44;1698096;82;20172;-63
2022/09/09 09:56:00;;;;;;;;;;;;;;;29.56;53.60;155097.58;1691956;82;20189;-64
2022/09/09 09:58:28;;;;;;;;;;;;;;;29.57;53.60;155100.20;1699725;84;20193;-63
2022/09/09 10:00:55;;;;;;;;;;;;;;;29.62;53.29;155111.98;1701255;84;21055;-74
2022/09/09 10:03:29;;;;;;;;;;;;;;;29.62;53.34;155111.98;1700995;82;20189;-65
2022/09/09 10:05:56;;;;;;;;;;;;;;;29.72;53.14;155138.28;1696013;82;20253;-74
2022/09/09 10:08:25;;;;;;;;;;;;;;;29.82;52.41;155163.23;1700601;82;20562;-65
2022/09/09 10:11:04;;;;;;;;;;;;;;;29.68;52.33;155127.78;1698474;82;20454;-65
2022/09/09 10:13:42;;;;;;;;;;;;;;;29.56;52.50;155098.86;1699688;82;20181;-64
2022/09/09 10:16:24;;;;;;;;;;;;;;;29.44;52.86;155068.66;1701960;83;20477;-75
2022/09/09 10:19:00;;;;;;;;;;;;;;;29.36;52.94;155047.63;1692187;82;20196;-64
2022/09/09 10:21:43;;;;;;;;;;;;;;;29.31;52.52;155035.78;1701041;83;20220;-74
2022/09/09 10:24:32;;;;;;;;;;;;;;;29.34;52.45;155041.03;1694821;82;20198;-74
2022/09/09 10:27:20;;;;;;;;;;;;;;;29.36;52.25;155047.63;1697907;82;21243;-75
2022/09/09 10:30:09;;;;;;;;;;;;;;;29.39;52.25;155054.16;1702421;82;20201;-75
2022/09/09 10:32:43;;;;;;;;;;;;;;;29.27;52.25;155023.95;1704362;82;20494;-76
2022/09/09 10:35:39;;;;;;;;;;;;;;;29.16;52.71;154997.72;1700005;82;20204;-75
2022/09/09 10:38:18;;;;;;;;;;;;;;;29.25;52.65;155018.70;1701528;82;20177;-74
2022/09/09 10:40:52;;;;;;;;;;;;;;;29.38;52.38;155051.53;1695541;82;21198;-74
2022/09/09 10:43:39;;;;;;;;;;;;;;;29.48;52.00;155077.87;1700082;82;20130;-74
2022/09/09 10:46:16;;;;;;;;;;;;;;;29.44;51.90;155067.38;1703124;82;20230;-72
2022/09/09 10:48:47;;;;;;;;;;;;;;;29.36;52.00;155047.63;1703289;82;20193;-73
2022/09/09 10:51:40;;;;;;;;;;;;;;;29.35;52.26;155045.00;1706525;82;20468;-74
2022/09/09 10:54:20;;;;;;;;;;;;;;;29.50;51.77;155083.13;1707311;81;21600;-73
2022/09/09 10:56:50;;;;;;;;;;;;;;;29.62;51.37;155113.31;1702603;82;20131;-72
2022/09/09 10:59:20;;;;;;;;;;;;;;;29.79;51.24;155155.36;1702740;82;20362;-65
2022/09/09 11:01:54;;;;;;;;;;;;;;;29.97;51.04;155202.66;1701677;82;20136;-65
2022/09/09 11:04:25;;;;;;;;;;;;;;;29.94;51.10;155194.73;1694013;82;20540;-63
2022/09/09 11:06:56;;;;;;;;;;;;;;;29.87;51.57;155176.36;1702537;82;21174;-64
2022/09/09 11:09:26;;;;;;;;;;;;;;;29.81;51.75;155160.61;1703481;82;20185;-63
2022/09/09 11:11:54;;;;;;;;;;;;;;;29.82;51.91;155163.23;1701522;82;20224;-63
2022/09/09 11:14:30;;;;;;;;;;;;;;;29.87;51.77;155176.36;1705153;82;20150;-64
2022/09/09 11:17:00;;;;;;;;;;;;;;;29.92;52.00;155189.48;1698967;82;20316;-64
2022/09/09 11:19:40;;;;;;;;;;;;;;;29.96;51.79;155200.03;1704989;82;21248;-64
2022/09/09 11:22:19;;;;;;;;;;;;;;;29.95;51.77;155197.36;1696771;82;20220;-63
2022/09/09 11:25:11;;;;;;;;;;;;;;;29.87;52.28;155176.36;1654416;85;20262;-63
2022/09/09 11:27:43;;;;;;;;;;;;;;;29.87;52.57;155177.69;1716299;82;20314;-64
2022/09/09 11:30:19;;;;;;;;;;;;;;;29.96;52.67;155198.70;1702252;82;20245;-64
2022/09/09 11:33:08;;;;;;;;;;;;;;;30.05;52.07;155222.38;1716953;82;21088;-64
2022/09/09 11:36:06;;;;;;;;;;;;;;;30.03;52.21;155215.83;1719545;82;20188;-64
2022/09/09 11:38:43;;;;;;;;;;;;;;;29.95;52.29;155197.36;1716108;82;20460;-63
2022/09/09 11:41:09;;;;;;;;;;;;;;;29.82;52.59;155163.23;1721468;82;20280;-63
2022/09/09 11:43:47;;;;;;;;;;;;;;;29.69;53.08;155130.41;1720405;82;20654;-64
2022/09/09 11:46:15;;;;;;;;;;;;;;;29.65;53.56;155121.19;1715381;82;21386;-63
2022/09/09 11:48:49;;;;;;;;;;;;;;;29.75;53.37;155146.16;1719404;83;20128;-64
2022/09/09 11:51:15;;;;;;;;;;;;;;;29.85;53.04;155171.11;1714941;82;20179;-64
2022/09/09 11:53:58;;;;;;;;;;;;;;;29.91;52.59;155185.56;1717150;82;20188;-64
2022/09/09 11:56:44;;;;;;;;;;;;;;;29.77;52.69;155151.41;1718541;82;20455;-63
2022/09/09 11:59:21;;;;;;;;;;;;;;;29.55;53.39;155094.95;1715835;82;21149;-63
2022/09/09 12:02:01;;;;;;;;;;;;;;;29.47;53.88;155073.91;1690666;83;20740;-66
